sensor_id;sensor_type;location;lat;lon;timestamp;P1;durP1;ratioP1;P2;durP2;ratioP2
40601;SDS011;26310;50.278;19.032;2023-05-07T04:49:38;2.30;;;1.43;;
40601;SDS011;26310;50.278;19.032;2023-05-07T04:54:41;2.50;;;2.30;;
40601;SDS011;26310;50.278;19.032;2023-05-07T04:59:44;3.10;;;1.87;;
40601;SDS011;26310;50.278;19.032;2023-05-07T05:04:47;4.53;;;2.10;;
40601;SDS011;26310;50.278;19.032;2023-05-07T05:09:50;2.10;;;1.90;;
40601;SDS011;26310;50.278;19.032;2023-05-07T05:14:52;3.97;;;1.57;;
40601;SDS011;26310;50.278;19.032;2023-05-07T05:19:55;2.10;;;1.53;;
40601;SDS011;26310;50.278;19.032;2023-05-07T05:24:58;1.60;;;1.50;;
40601;SDS011;26310;50.278;19.032;2023-05-07T05:30:03;3.60;;;1.47;;
40601;SDS011;26310;50.278;19.032;2023-05-07T05:35:07;2.07;;;1.30;;
40601;SDS011;26310;50.278;19.032;2023-05-07T05:40:10;2.20;;;1.43;;
40601;SDS011;26310;50.278;19.032;2023-05-07T05:45:13;2.13;;;1.43;;
40601;SDS011;26310;50.278;19.032;2023-05-07T05:50:16;1.73;;;1.63;;
40601;SDS011;26310;50.278;19.032;2023-05-07T05:55:19;2.40;;;1.60;;
40601;SDS011;26310;50.278;19.032;2023-05-07T06:00:22;1.77;;;1.43;;
40601;SDS011;26310;50.278;19.032;2023-05-07T06:05:25;2.23;;;1.70;;
40601;SDS011;26310;50.278;19.032;2023-05-07T06:10:28;1.70;;;1.60;;
40601;SDS011;26310;50.278;19.032;2023-05-07T06:15:31;2.53;;;1.77;;
40601;SDS011;26310;50.278;19.032;2023-05-07T06:20:34;2.87;;;1.80;;
40601;SDS011;26310;50.278;19.032;2023-05-07T06:25:37;2.63;;;1.80;;
40601;SDS011;26310;50.278;19.032;2023-05-07T06:30:40;1.80;;;1.53;;
40601;SDS011;26310;50.278;19.032;2023-05-07T06:35:43;2.10;;;1.60;;
40601;SDS011;26310;50.278;19.032;2023-05-07T06:40:48;2.13;;;1.93;;
40601;SDS011;26310;50.278;19.032;2023-05-07T06:45:51;1.83;;;1.70;;
40601;SDS011;26310;50.278;19.032;2023-05-07T06:50:54;2.20;;;1.57;;
40601;SDS011;26310;50.278;19.032;2023-05-07T06:55:59;2.00;;;1.67;;
40601;SDS011;26310;50.278;19.032;2023-05-07T07:01:01;3.70;;;1.60;;
40601;SDS011;26310;50.278;19.032;2023-05-07T07:06:04;3.63;;;2.33;;
40601;SDS011;26310;50.278;19.032;2023-05-07T07:11:08;2.37;;;1.70;;
40601;SDS011;26310;50.278;19.032;2023-05-07T07:16:11;3.53;;;2.10;;
40601;SDS011;26310;50.278;19.032;2023-05-07T07:21:14;5.00;;;1.77;;
40601;SDS011;26310;50.278;19.032;2023-05-07T07:26:17;2.73;;;1.67;;
40601;SDS011;26310;50.278;19.032;2023-05-07T07:31:20;1.30;;;1.20;;
40601;SDS011;26310;50.278;19.032;2023-05-07T07:36:23;1.60;;;1.40;;
40601;SDS011;26310;50.278;19.032;2023-05-07T07:41:39;1.73;;;1.50;;
40601;SDS011;26310;50.278;19.032;2023-05-07T07:46:42;1.47;;;1.33;;
40601;SDS011;26310;50.278;19.032;2023-05-07T07:51:45;1.80;;;1.50;;
40601;SDS011;26310;50.278;19.032;2023-05-07T07:56:47;1.77;;;1.60;;
40601;SDS011;26310;50.278;19.032;2023-05-07T08:01:50;1.90;;;1.70;;
40601;SDS011;26310;50.278;19.032;2023-05-07T08:06:56;2.33;;;1.73;;
40601;SDS011;26310;50.278;19.032;2023-05-07T08:11:59;3.10;;;1.37;;
40601;SDS011;26310;50.278;19.032;2023-05-07T08:17:03;1.47;;;1.37;;
40601;SDS011;26310;50.278;19.032;2023-05-07T08:22:05;1.60;;;1.50;;
40601;SDS011;26310;50.278;19.032;2023-05-07T08:27:08;2.20;;;1.60;;
40601;SDS011;26310;50.278;19.032;2023-05-07T08:32:11;3.23;;;2.17;;
40601;SDS011;26310;50.278;19.032;2023-05-07T08:37:14;2.80;;;2.00;;
40601;SDS011;26310;50.278;19.032;2023-05-07T08:42:17;2.07;;;1.80;;
40601;SDS011;26310;50.278;19.032;2023-05-07T08:47:19;3.60;;;2.30;;
40601;SDS011;26310;50.278;19.032;2023-05-07T08:52:24;2.67;;;1.77;;
40601;SDS011;26310;50.278;19.032;2023-05-07T08:57:28;1.97;;;1.87;;
40601;SDS011;26310;50.278;19.032;2023-05-07T09:02:34;2.13;;;1.93;;
40601;SDS011;26310;50.278;19.032;2023-05-07T09:07:38;2.07;;;1.80;;
40601;SDS011;26310;50.278;19.032;2023-05-07T09:12:41;3.33;;;1.90;;
40601;SDS011;26310;50.278;19.032;2023-05-07T09:17:43;2.30;;;2.03;;
40601;SDS011;26310;50.278;19.032;2023-05-07T09:22:46;2.57;;;2.37;;
40601;SDS011;26310;50.278;19.032;2023-05-07T09:27:53;3.43;;;2.20;;
40601;SDS011;26310;50.278;19.032;2023-05-07T09:32:56;2.17;;;1.97;;
40601;SDS011;26310;50.278;19.032;2023-05-07T09:38:01;2.50;;;1.80;;
40601;SDS011;26310;50.278;19.032;2023-05-07T09:43:12;2.37;;;2.00;;
40601;SDS011;26310;50.278;19.032;2023-05-07T09:48:15;2.87;;;2.20;;
40601;SDS011;26310;50.278;19.032;2023-05-07T09:53:19;2.37;;;2.00;;
40601;SDS011;26310;50.278;19.032;2023-05-07T09:58:22;1.47;;;1.37;;
40601;SDS011;26310;50.278;19.032;2023-05-07T10:03:26;3.27;;;2.30;;
40601;SDS011;26310;50.278;19.032;2023-05-07T10:08:30;2.60;;;2.20;;
40601;SDS011;26310;50.278;19.032;2023-05-07T10:13:33;2.97;;;2.23;;
40601;SDS011;26310;50.278;19.032;2023-05-07T10:18:42;3.23;;;2.20;;
40601;SDS011;26310;50.278;19.032;2023-05-07T10:23:46;2.30;;;2.10;;
40601;SDS011;26310;50.278;19.032;2023-05-07T10:29:02;3.30;;;2.30;;
40601;SDS011;26310;50.278;19.032;2023-05-07T10:34:10;4.10;;;3.03;;
40601;SDS011;26310;50.278;19.032;2023-05-07T10:39:14;4.20;;;2.43;;
40601;SDS011;26310;50.278;19.032;2023-05-07T10:44:29;3.73;;;2.13;;
40601;SDS011;26310;50.278;19.032;2023-05-07T10:49:32;3.10;;;2.10;;
40601;SDS011;26310;50.278;19.032;2023-05-07T10:54:35;2.23;;;1.90;;
40601;SDS011;26310;50.278;19.032;2023-05-07T10:59:38;2.53;;;1.97;;
40601;SDS011;26310;50.278;19.032;2023-05-07T11:04:44;4.27;;;2.50;;
40601;SDS011;26310;50.278;19.032;2023-05-07T11:14:57;3.30;;;2.63;;
40601;SDS011;26310;50.278;19.032;2023-05-07T11:20:03;2.70;;;2.50;;
40601;SDS011;26310;50.278;19.032;2023-05-07T11:25:06;4.07;;;2.50;;
40601;SDS011;26310;50.278;19.032;2023-05-07T11:30:09;4.43;;;2.97;;
40601;SDS011;26310;50.278;19.032;2023-05-07T11:35:18;3.20;;;2.90;;
40601;SDS011;26310;50.278;19.032;2023-05-07T11:40:26;2.90;;;2.30;;
40601;SDS011;26310;50.278;19.032;2023-05-07T11:45:30;3.67;;;2.50;;
40601;SDS011;26310;50.278;19.032;2023-05-07T11:50:33;2.97;;;2.43;;
40601;SDS011;26310;50.278;19.032;2023-05-07T11:55:35;3.50;;;2.87;;
40601;SDS011;26310;50.278;19.032;2023-05-07T12:00:38;3.83;;;2.97;;
40601;SDS011;26310;50.278;19.032;2023-05-07T12:05:41;2.83;;;2.33;;
40601;SDS011;26310;50.278;19.032;2023-05-07T12:10:44;3.90;;;2.20;;
40601;SDS011;26310;50.278;19.032;2023-05-07T12:15:52;3.30;;;2.60;;
40601;SDS011;26310;50.278;19.032;2023-05-07T12:20:57;3.77;;;2.73;;
40601;SDS011;26310;50.278;19.032;2023-05-07T12:26:00;3.00;;;2.70;;
40601;SDS011;26310;50.278;19.032;2023-05-07T12:31:07;5.60;;;2.40;;
40601;SDS011;26310;50.278;19.032;2023-05-07T12:36:11;3.63;;;2.70;;
40601;SDS011;26310;50.278;19.032;2023-05-07T12:41:15;5.30;;;2.87;;
40601;SDS011;26310;50.278;19.032;2023-05-07T12:46:18;2.87;;;2.50;;
40601;SDS011;26310;50.278;19.032;2023-05-07T12:51:21;2.47;;;2.20;;
40601;SDS011;26310;50.278;19.032;2023-05-07T12:56:24;2.20;;;1.87;;
40601;SDS011;26310;50.278;19.032;2023-05-07T13:01:30;2.97;;;2.17;;
40601;SDS011;26310;50.278;19.032;2023-05-07T13:06:35;1.93;;;1.73;;
40601;SDS011;26310;50.278;19.032;2023-05-07T13:11:38;2.97;;;2.40;;
40601;SDS011;26310;50.278;19.032;2023-05-07T13:16:41;2.43;;;1.97;;
40601;SDS011;26310;50.278;19.032;2023-05-07T13:21:44;3.87;;;2.30;;
40601;SDS011;26310;50.278;19.032;2023-05-07T13:26:47;4.70;;;3.00;;
40601;SDS011;26310;50.278;19.032;2023-05-07T13:31:49;2.50;;;1.90;;
40601;SDS011;26310;50.278;19.032;2023-05-07T13:36:52;4.60;;;2.90;;
40601;SDS011;26310;50.278;19.032;2023-05-07T13:41:55;3.23;;;2.03;;
40601;SDS011;26310;50.278;19.032;2023-05-07T13:46:58;4.03;;;2.33;;
40601;SDS011;26310;50.278;19.032;2023-05-07T13:52:02;3.07;;;2.40;;
40601;SDS011;26310;50.278;19.032;2023-05-07T13:57:05;2.23;;;1.90;;
40601;SDS011;26310;50.278;19.032;2023-05-07T14:02:08;1.97;;;1.77;;
40601;SDS011;26310;50.278;19.032;2023-05-07T14:07:11;2.27;;;1.93;;
40601;SDS011;26310;50.278;19.032;2023-05-07T14:12:13;2.67;;;2.07;;
40601;SDS011;26310;50.278;19.032;2023-05-07T14:17:17;3.00;;;2.00;;
40601;SDS011;26310;50.278;19.032;2023-05-07T14:22:21;2.57;;;1.93;;
40601;SDS011;26310;50.278;19.032;2023-05-07T14:27:24;2.30;;;2.03;;
40601;SDS011;26310;50.278;19.032;2023-05-07T14:32:27;3.97;;;2.20;;
40601;SDS011;26310;50.278;19.032;2023-05-07T14:37:30;4.00;;;2.83;;
40601;SDS011;26310;50.278;19.032;2023-05-07T14:42:32;3.10;;;2.80;;
40601;SDS011;26310;50.278;19.032;2023-05-07T14:47:35;4.03;;;2.20;;
40601;SDS011;26310;50.278;19.032;2023-05-07T14:52:38;2.63;;;2.17;;
40601;SDS011;26310;50.278;19.032;2023-05-07T14:57:44;2.77;;;2.20;;
40601;SDS011;26310;50.278;19.032;2023-05-07T15:02:46;4.37;;;2.27;;
40601;SDS011;26310;50.278;19.032;2023-05-07T15:07:49;3.47;;;2.40;;
40601;SDS011;26310;50.278;19.032;2023-05-07T15:12:52;3.57;;;2.27;;
40601;SDS011;26310;50.278;19.032;2023-05-07T15:17:55;3.30;;;2.50;;
40601;SDS011;26310;50.278;19.032;2023-05-07T15:22:58;3.23;;;1.87;;
40601;SDS011;26310;50.278;19.032;2023-05-07T15:28:01;4.30;;;3.17;;
40601;SDS011;26310;50.278;19.032;2023-05-07T15:33:04;3.77;;;2.63;;
40601;SDS011;26310;50.278;19.032;2023-05-07T15:38:07;3.37;;;2.57;;
40601;SDS011;26310;50.278;19.032;2023-05-07T15:43:10;4.90;;;3.73;;
40601;SDS011;26310;50.278;19.032;2023-05-07T15:48:13;2.77;;;2.10;;
40601;SDS011;26310;50.278;19.032;2023-05-07T15:53:16;5.40;;;3.20;;
40601;SDS011;26310;50.278;19.032;2023-05-07T15:58:19;5.23;;;3.13;;
40601;SDS011;26310;50.278;19.032;2023-05-07T16:03:22;9.03;;;3.70;;
40601;SDS011;26310;50.278;19.032;2023-05-07T16:08:25;6.50;;;3.57;;
40601;SDS011;26310;50.278;19.032;2023-05-07T16:13:28;4.70;;;3.30;;
40601;SDS011;26310;50.278;19.032;2023-05-07T16:18:31;4.47;;;3.17;;
40601;SDS011;26310;50.278;19.032;2023-05-07T16:23:34;6.20;;;3.00;;
40601;SDS011;26310;50.278;19.032;2023-05-07T16:28:37;3.33;;;2.80;;
40601;SDS011;26310;50.278;19.032;2023-05-07T16:33:40;5.87;;;3.73;;
40601;SDS011;26310;50.278;19.032;2023-05-07T16:38:43;4.60;;;3.13;;
40601;SDS011;26310;50.278;19.032;2023-05-07T16:43:46;5.97;;;2.90;;
40601;SDS011;26310;50.278;19.032;2023-05-07T16:48:49;6.93;;;3.70;;
40601;SDS011;26310;50.278;19.032;2023-05-07T16:53:52;5.20;;;3.57;;
40601;SDS011;26310;50.278;19.032;2023-05-07T16:58:55;7.23;;;3.17;;
40601;SDS011;26310;50.278;19.032;2023-05-07T17:03:58;6.33;;;3.00;;
40601;SDS011;26310;50.278;19.032;2023-05-07T17:09:09;6.97;;;3.53;;
40601;SDS011;26310;50.278;19.032;2023-05-07T17:14:12;6.63;;;3.80;;
40601;SDS011;26310;50.278;19.032;2023-05-07T17:19:15;6.00;;;3.77;;
40601;SDS011;26310;50.278;19.032;2023-05-07T17:24:18;7.67;;;3.57;;
40601;SDS011;26310;50.278;19.032;2023-05-07T17:29:21;5.53;;;3.97;;
40601;SDS011;26310;50.278;19.032;2023-05-07T17:34:23;5.97;;;3.43;;
40601;SDS011;26310;50.278;19.032;2023-05-07T17:39:26;6.60;;;3.63;;
40601;SDS011;26310;50.278;19.032;2023-05-07T17:44:29;4.80;;;3.47;;
40601;SDS011;26310;50.278;19.032;2023-05-07T17:49:32;7.40;;;3.70;;
40601;SDS011;26310;50.278;19.032;2023-05-07T17:54:35;3.17;;;2.87;;
40601;SDS011;26310;50.278;19.032;2023-05-07T17:59:38;4.00;;;3.27;;
40601;SDS011;26310;50.278;19.032;2023-05-07T18:04:41;4.50;;;3.50;;
40601;SDS011;26310;50.278;19.032;2023-05-07T18:09:44;4.50;;;3.20;;
40601;SDS011;26310;50.278;19.032;2023-05-07T18:14:46;3.20;;;2.77;;
40601;SDS011;26310;50.278;19.032;2023-05-07T18:19:49;5.10;;;3.20;;
40601;SDS011;26310;50.278;19.032;2023-05-07T18:24:55;4.63;;;3.07;;
40601;SDS011;26310;50.278;19.032;2023-05-07T18:29:58;5.40;;;2.87;;
40601;SDS011;26310;50.278;19.032;2023-05-07T18:35:02;4.03;;;2.40;;
40601;SDS011;26310;50.278;19.032;2023-05-07T18:40:05;5.10;;;3.07;;
40601;SDS011;26310;50.278;19.032;2023-05-07T18:45:08;3.60;;;2.40;;
40601;SDS011;26310;50.278;19.032;2023-05-07T18:50:11;5.43;;;3.30;;
40601;SDS011;26310;50.278;19.032;2023-05-07T18:55:15;6.23;;;3.50;;
40601;SDS011;26310;50.278;19.032;2023-05-07T19:00:19;4.60;;;2.53;;
40601;SDS011;26310;50.278;19.032;2023-05-07T19:05:22;3.93;;;3.00;;
40601;SDS011;26310;50.278;19.032;2023-05-07T19:10:25;4.60;;;3.30;;
40601;SDS011;26310;50.278;19.032;2023-05-07T19:15:28;4.43;;;3.23;;
40601;SDS011;26310;50.278;19.032;2023-05-07T19:20:31;5.00;;;2.83;;
40601;SDS011;26310;50.278;19.032;2023-05-07T19:25:34;4.50;;;3.40;;
40601;SDS011;26310;50.278;19.032;2023-05-07T19:30:37;5.43;;;2.73;;
40601;SDS011;26310;50.278;19.032;2023-05-07T19:35:41;3.80;;;2.77;;
40601;SDS011;26310;50.278;19.032;2023-05-07T19:40:44;3.10;;;2.40;;
40601;SDS011;26310;50.278;19.032;2023-05-07T19:45:47;4.43;;;3.03;;
40601;SDS011;26310;50.278;19.032;2023-05-07T19:50:50;7.13;;;2.93;;
40601;SDS011;26310;50.278;19.032;2023-05-07T19:56:06;3.33;;;2.67;;
40601;SDS011;26310;50.278;19.032;2023-05-07T20:01:11;4.87;;;3.17;;
40601;SDS011;26310;50.278;19.032;2023-05-07T20:06:14;7.27;;;3.80;;
40601;SDS011;26310;50.278;19.032;2023-05-07T20:11:17;4.33;;;3.03;;
40601;SDS011;26310;50.278;19.032;2023-05-07T20:16:21;3.63;;;2.57;;
40601;SDS011;26310;50.278;19.032;2023-05-07T20:21:23;4.90;;;2.87;;
40601;SDS011;26310;50.278;19.032;2023-05-07T20:26:27;3.47;;;2.60;;
40601;SDS011;26310;50.278;19.032;2023-05-07T20:31:30;4.87;;;2.93;;
40601;SDS011;26310;50.278;19.032;2023-05-07T20:36:35;7.13;;;3.60;;
40601;SDS011;26310;50.278;19.032;2023-05-07T20:41:38;6.00;;;2.83;;
40601;SDS011;26310;50.278;19.032;2023-05-07T20:46:41;3.93;;;2.77;;
40601;SDS011;26310;50.278;19.032;2023-05-07T20:51:45;4.33;;;3.00;;
40601;SDS011;26310;50.278;19.032;2023-05-07T20:56:48;6.97;;;2.80;;
40601;SDS011;26310;50.278;19.032;2023-05-07T21:01:50;3.07;;;2.57;;
40601;SDS011;26310;50.278;19.032;2023-05-07T21:06:53;4.70;;;3.23;;
40601;SDS011;26310;50.278;19.032;2023-05-07T21:11:57;3.70;;;2.43;;
40601;SDS011;26310;50.278;19.032;2023-05-07T21:17:01;4.17;;;2.67;;
40601;SDS011;26310;50.278;19.032;2023-05-07T21:22:07;4.63;;;2.57;;
40601;SDS011;26310;50.278;19.032;2023-05-07T21:27:10;3.07;;;2.73;;
40601;SDS011;26310;50.278;19.032;2023-05-07T21:32:14;3.33;;;2.13;;
40601;SDS011;26310;50.278;19.032;2023-05-07T21:37:19;3.83;;;2.87;;
40601;SDS011;26310;50.278;19.032;2023-05-07T21:42:22;4.97;;;2.53;;
40601;SDS011;26310;50.278;19.032;2023-05-07T21:47:26;4.53;;;2.47;;
40601;SDS011;26310;50.278;19.032;2023-05-07T21:52:29;2.53;;;2.33;;
40601;SDS011;26310;50.278;19.032;2023-05-07T21:57:32;3.00;;;2.33;;
40601;SDS011;26310;50.278;19.032;2023-05-07T22:02:37;4.20;;;2.60;;
40601;SDS011;26310;50.278;19.032;2023-05-07T22:07:40;3.57;;;2.00;;
40601;SDS011;26310;50.278;19.032;2023-05-07T22:12:44;5.43;;;2.40;;
40601;SDS011;26310;50.278;19.032;2023-05-07T22:17:47;3.40;;;2.50;;
40601;SDS011;26310;50.278;19.032;2023-05-07T22:22:51;3.07;;;2.37;;
40601;SDS011;26310;50.278;19.032;2023-05-07T22:27:55;3.30;;;2.20;;
40601;SDS011;26310;50.278;19.032;2023-05-07T22:32:58;3.47;;;2.30;;
40601;SDS011;26310;50.278;19.032;2023-05-07T22:38:02;3.77;;;2.30;;
40601;SDS011;26310;50.278;19.032;2023-05-07T22:43:05;5.17;;;2.80;;
40601;SDS011;26310;50.278;19.032;2023-05-07T22:48:07;3.30;;;2.10;;
40601;SDS011;26310;50.278;19.032;2023-05-07T22:53:10;3.23;;;2.30;;
40601;SDS011;26310;50.278;19.032;2023-05-07T22:58:13;3.27;;;2.23;;
40601;SDS011;26310;50.278;19.032;2023-05-07T23:03:16;3.97;;;2.30;;
40601;SDS011;26310;50.278;19.032;2023-05-07T23:08:19;4.27;;;2.30;;
40601;SDS011;26310;50.278;19.032;2023-05-07T23:13:22;2.67;;;2.47;;
40601;SDS011;26310;50.278;19.032;2023-05-07T23:18:25;4.00;;;2.20;;
40601;SDS011;26310;50.278;19.032;2023-05-07T23:23:33;3.47;;;2.20;;
40601;SDS011;26310;50.278;19.032;2023-05-07T23:28:36;4.27;;;2.80;;
40601;SDS011;26310;50.278;19.032;2023-05-07T23:33:39;2.87;;;2.37;;
40601;SDS011;26310;50.278;19.032;2023-05-07T23:38:42;2.10;;;1.90;;
40601;SDS011;26310;50.278;19.032;2023-05-07T23:43:45;2.50;;;1.87;;
